createdAt,value
2022-08-19T00:00:31.081Z,56.33
2022-08-19T00:02:35.922Z,56.22
2022-08-19T00:04:40.768Z,56.20
2022-08-19T00:06:47.504Z,55.88
2022-08-19T00:08:52.234Z,55.78
2022-08-19T00:10:56.981Z,55.57
2022-08-19T00:13:01.748Z,55.36
2022-08-19T00:15:08.305Z,55.63
2022-08-19T00:17:17.130Z,55.62
2022-08-19T00:19:22.746Z,55.76
2022-08-19T00:21:27.857Z,55.45
2022-08-19T00:23:32.586Z,55.82
2022-08-19T00:25:37.802Z,55.94
2022-08-19T00:27:42.693Z,56.10
2022-08-19T00:29:52.302Z,55.99
2022-08-19T00:31:57.845Z,56.07
2022-08-19T00:34:02.825Z,56.17
2022-08-19T00:36:10.818Z,56.67
2022-08-19T00:38:15.512Z,56.79
2022-08-19T00:40:20.830Z,57.48
2022-08-19T00:42:25.568Z,57.56
2022-08-19T00:44:31.348Z,57.62
2022-08-19T00:46:38.670Z,57.59
2022-08-19T00:48:43.440Z,58.10
2022-08-19T00:50:52.228Z,57.89
2022-08-19T00:52:57.494Z,58.01
2022-08-19T00:55:03.836Z,57.86
2022-08-19T00:57:12.576Z,57.95
2022-08-19T00:59:58.740Z,57.72
2022-08-19T01:01:45.273Z,58.14
2022-08-19T01:03:56.893Z,58.07
2022-08-19T01:06:03.109Z,58.80
2022-08-19T01:08:09.123Z,59.31
2022-08-19T01:10:18.525Z,59.76
2022-08-19T01:12:23.720Z,60.44
2022-08-19T01:14:28.897Z,60.51
2022-08-19T01:16:35.968Z,60.92
2022-08-19T01:18:43.212Z,61.65
2022-08-19T01:20:49.178Z,61.78
2022-08-19T01:22:56.111Z,62.39
2022-08-19T01:25:01.027Z,62.52
2022-08-19T01:27:07.766Z,62.34
2022-08-19T01:29:15.806Z,62.51
2022-08-19T01:31:26.957Z,62.34
2022-08-19T01:33:32.624Z,62.01
2022-08-19T01:35:37.616Z,62.02
2022-08-19T01:37:52.845Z,62.16
2022-08-19T01:39:57.694Z,62.15
2022-08-19T01:42:02.543Z,62.15
2022-08-19T01:44:18.322Z,62.06
2022-08-19T01:46:25.140Z,62.15
2022-08-19T01:48:33.565Z,62.24
2022-08-19T01:50:38.821Z,62.51
2022-08-19T01:52:44.838Z,62.52
2022-08-19T01:54:49.593Z,62.26
2022-08-19T01:56:58.858Z,62.37
2022-08-19T01:59:06.691Z,62.31
2022-08-19T02:01:11.746Z,62.33
2022-08-19T02:03:16.885Z,62.16
2022-08-19T02:05:21.850Z,62.13
2022-08-19T02:07:27.927Z,62.17
2022-08-19T02:09:33.341Z,62.13
2022-08-19T02:11:39.498Z,62.01
2022-08-19T02:13:44.257Z,61.70
2022-08-19T02:15:49.086Z,61.38
2022-08-19T02:17:53.861Z,61.25
2022-08-19T02:19:58.840Z,61.19
2022-08-19T02:22:03.692Z,60.89
2022-08-19T02:24:08.615Z,60.56
2022-08-19T02:26:13.635Z,60.48
2022-08-19T02:28:19.081Z,60.62
2022-08-19T02:30:24.389Z,60.85
2022-08-19T02:32:29.233Z,61.03
2022-08-19T02:34:33.921Z,61.02
2022-08-19T02:36:42.508Z,61.31
2022-08-19T02:38:54.337Z,62.00
2022-08-19T02:41:02.613Z,62.26
2022-08-19T02:43:09.334Z,62.81
2022-08-19T02:45:15.070Z,63.36
2022-08-19T02:47:19.855Z,63.78
2022-08-19T02:49:25.040Z,64.15
2022-08-19T02:51:33.802Z,63.84
2022-08-19T02:53:38.394Z,64.55
2022-08-19T02:55:47.931Z,64.91
2022-08-19T02:57:52.646Z,64.98
2022-08-19T03:00:00.195Z,65.60
2022-08-19T03:02:05.268Z,65.59
2022-08-19T03:04:11.828Z,65.56
2022-08-19T03:06:17.412Z,65.67
2022-08-19T03:08:22.098Z,65.61
2022-08-19T03:10:29.916Z,65.59
2022-08-19T03:12:38.386Z,65.75
2022-08-19T03:14:43.315Z,65.89
2022-08-19T03:16:50.082Z,65.58
2022-08-19T03:18:57.282Z,65.66
2022-08-19T03:21:02.178Z,65.73
2022-08-19T03:23:06.864Z,65.45
2022-08-19T03:25:12.443Z,65.29
2022-08-19T03:27:17.181Z,65.23
2022-08-19T03:29:30.805Z,65.29
2022-08-19T03:31:43.583Z,65.94
2022-08-19T03:33:55.766Z,66.33
2022-08-19T03:36:09.615Z,66.82
2022-08-19T03:38:14.320Z,67.04
2022-08-19T03:40:20.651Z,67.19
2022-08-19T03:42:38.765Z,67.76
2022-08-19T03:44:50.199Z,67.38
2022-08-19T03:46:57.399Z,68.14
2022-08-19T03:49:05.265Z,68.26
2022-08-19T03:51:18.966Z,68.14
2022-08-19T03:53:37.277Z,68.22
2022-08-19T03:55:43.538Z,68.15
2022-08-19T03:57:48.542Z,68.44
2022-08-19T03:59:53.596Z,68.71
2022-08-19T04:02:01.196Z,68.54
2022-08-19T04:04:09.472Z,68.76
2022-08-19T04:06:17.813Z,68.47
2022-08-19T04:08:22.617Z,68.36
2022-08-19T04:10:27.304Z,68.40
2022-08-19T04:12:32.244Z,68.35
2022-08-19T04:14:37.265Z,68.40
2022-08-19T04:16:42.615Z,68.48
2022-08-19T04:18:47.986Z,68.31
2022-08-19T04:20:52.708Z,68.29
2022-08-19T04:22:59.033Z,68.35
2022-08-19T04:25:04.194Z,67.95
2022-08-19T04:27:08.990Z,68.02
2022-08-19T04:29:16.733Z,67.82
2022-08-19T04:31:23.846Z,68.06
2022-08-19T04:33:28.830Z,67.81
2022-08-19T04:35:40.070Z,67.79
2022-08-19T04:37:44.913Z,67.64
2022-08-19T04:39:49.644Z,67.73
2022-08-19T04:41:54.536Z,67.65
2022-08-19T04:44:03.746Z,67.54
2022-08-19T04:46:11.344Z,67.47
2022-08-19T04:48:33.331Z,67.35
2022-08-19T04:50:43.534Z,67.35
2022-08-19T04:52:50.973Z,67.09
2022-08-19T04:54:55.731Z,67.03
2022-08-19T04:57:00.478Z,66.99
2022-08-19T04:59:05.215Z,66.77
2022-08-19T05:01:12.215Z,66.61
2022-08-19T05:03:16.959Z,66.45
2022-08-19T05:05:21.923Z,66.42
2022-08-19T05:07:26.817Z,66.23
2022-08-19T05:09:58.345Z,66.54
2022-08-19T05:11:56.959Z,66.29
2022-08-19T05:14:02.911Z,66.31
2022-08-19T05:16:07.900Z,66.12
2022-08-19T05:18:12.780Z,66.16
2022-08-19T05:20:17.488Z,66.18
2022-08-19T05:22:22.382Z,66.14
2022-08-19T05:24:27.517Z,66.22
2022-08-19T05:26:32.657Z,66.19
2022-08-19T05:28:37.306Z,66.64
2022-08-19T05:30:47.232Z,66.95
2022-08-19T05:32:54.016Z,67.50
2022-08-19T05:34:59.602Z,68.21
2022-08-19T05:37:06.187Z,68.59
2022-08-19T05:39:16.221Z,68.74
2022-08-19T05:41:22.398Z,68.70
2022-08-19T05:43:27.110Z,68.98
2022-08-19T05:45:31.887Z,69.44
2022-08-19T05:47:36.586Z,69.43
2022-08-19T05:49:47.304Z,70.22
2022-08-19T05:51:52.555Z,70.57
2022-08-19T05:53:57.190Z,70.38
2022-08-19T05:56:06.844Z,70.42
2022-08-19T05:58:11.534Z,70.84
2022-08-19T06:00:19.488Z,70.71
2022-08-19T06:02:27.592Z,70.63
2022-08-19T06:04:32.471Z,70.82
2022-08-19T06:06:37.741Z,71.08
2022-08-19T06:08:42.646Z,70.87
2022-08-19T06:10:47.384Z,70.70
2022-08-19T06:12:52.187Z,70.62
2022-08-19T06:15:01.580Z,70.77
2022-08-19T06:17:07.545Z,70.47
2022-08-19T06:19:16.193Z,70.15
2022-08-19T06:21:21.678Z,70.10
2022-08-19T06:23:27.716Z,70.17
2022-08-19T06:25:32.435Z,70.04
2022-08-19T06:27:42.022Z,69.85
2022-08-19T06:29:53.290Z,69.85
2022-08-19T06:31:59.831Z,69.64
2022-08-19T06:34:05.850Z,69.26
2022-08-19T06:36:18.354Z,69.20
2022-08-19T06:38:22.937Z,69.10
2022-08-19T06:40:27.659Z,68.91
2022-08-19T06:42:32.470Z,68.52
2022-08-19T06:44:42.588Z,68.34
2022-08-19T06:46:53.636Z,67.97
2022-08-19T06:49:00.288Z,67.86
2022-08-19T06:51:08.738Z,67.91
2022-08-19T06:53:13.852Z,67.88
2022-08-19T06:55:19.423Z,67.64
2022-08-19T06:57:24.675Z,67.38
2022-08-19T06:59:29.923Z,67.04
2022-08-19T07:01:37.414Z,67.08
2022-08-19T07:03:42.243Z,67.08
2022-08-19T07:05:47.264Z,66.91
2022-08-19T07:07:52.023Z,66.74
2022-08-19T07:10:00.915Z,66.63
2022-08-19T07:12:10.161Z,66.53
2022-08-19T07:14:16.678Z,66.47
2022-08-19T07:16:29.195Z,66.30
2022-08-19T07:18:36.960Z,65.94
2022-08-19T07:20:43.321Z,65.93
2022-08-19T07:22:48.214Z,65.86
2022-08-19T07:24:53.060Z,65.74
2022-08-19T07:26:59.961Z,65.63
2022-08-19T07:29:04.698Z,65.59
2022-08-19T07:31:11.214Z,65.17
2022-08-19T07:33:17.062Z,64.80
2022-08-19T07:35:21.897Z,64.94
2022-08-19T07:37:31.990Z,64.86
2022-08-19T07:39:39.041Z,64.49
2022-08-19T07:41:44.422Z,64.29
2022-08-19T07:43:50.494Z,64.37
2022-08-19T07:45:56.618Z,64.07
2022-08-19T07:48:01.710Z,63.87
2022-08-19T07:50:11.190Z,63.96
2022-08-19T07:52:16.028Z,63.54
2022-08-19T07:54:21.947Z,63.06
2022-08-19T07:56:26.655Z,63.02
2022-08-19T07:58:32.640Z,62.74
2022-08-19T08:00:38.176Z,62.37
2022-08-19T08:02:43.286Z,62.40
2022-08-19T08:04:51.056Z,61.96
2022-08-19T08:06:57.489Z,61.39
2022-08-19T08:09:04.108Z,61.15
2022-08-19T08:11:12.536Z,59.98
2022-08-19T08:13:21.085Z,59.25
2022-08-19T08:15:26.307Z,58.90
2022-08-19T08:17:49.723Z,58.52
2022-08-19T08:19:56.975Z,57.45
2022-08-19T08:22:02.972Z,56.51
2022-08-19T08:24:08.261Z,56.26
2022-08-19T08:26:13.048Z,55.27
2022-08-19T08:28:21.841Z,54.19
2022-08-19T08:30:31.164Z,53.74
2022-08-19T08:32:38.317Z,53.73
2022-08-19T08:34:43.453Z,55.01
2022-08-19T08:36:48.900Z,55.23
2022-08-19T08:41:14.736Z,54.61
2022-08-19T08:43:30.588Z,54.38
2022-08-19T08:45:43.044Z,54.27
2022-08-19T08:47:53.022Z,54.10
2022-08-19T08:50:02.961Z,53.96
2022-08-19T08:52:14.944Z,53.96
2022-08-19T08:54:23.212Z,53.64
2022-08-19T08:56:28.139Z,53.58
2022-08-19T08:58:43.967Z,53.36
2022-08-19T09:00:50.321Z,52.91
2022-08-19T09:02:55.814Z,52.84
2022-08-19T09:05:02.314Z,52.59
2022-08-19T09:07:35.221Z,52.40
2022-08-19T09:09:44.564Z,52.40
2022-08-19T09:12:03.445Z,51.62
2022-08-19T09:14:40.631Z,51.26
2022-08-19T09:16:43.373Z,50.29
2022-08-19T09:18:53.605Z,49.87
2022-08-19T09:20:58.696Z,49.76
2022-08-19T09:23:04.557Z,49.87
2022-08-19T09:25:15.052Z,49.26
2022-08-19T09:27:21.051Z,48.65
2022-08-19T09:29:25.929Z,48.63
2022-08-19T09:31:32.468Z,48.66
2022-08-19T09:33:37.507Z,48.10
2022-08-19T09:35:50.175Z,47.95
2022-08-19T09:38:00.010Z,47.82
2022-08-19T09:40:06.399Z,47.85
2022-08-19T09:42:16.601Z,47.54
2022-08-19T09:44:25.156Z,48.08
2022-08-19T09:46:32.195Z,47.83
2022-08-19T09:48:38.236Z,47.55
2022-08-19T09:50:51.481Z,47.48
2022-08-19T09:52:57.744Z,45.65
2022-08-19T09:55:08.114Z,45.14
2022-08-19T09:57:13.072Z,45.85
2022-08-19T09:59:18.366Z,45.66
2022-08-19T10:01:25.377Z,44.85
2022-08-19T10:03:32.349Z,44.74
2022-08-19T10:05:37.472Z,45.18
2022-08-19T10:07:42.365Z,45.62
2022-08-19T10:09:47.331Z,45.52
2022-08-19T10:11:55.035Z,45.88
2022-08-19T10:14:00.465Z,45.95
2022-08-19T10:16:09.030Z,46.02
2022-08-19T10:18:15.774Z,46.42
2022-08-19T10:20:20.962Z,46.34
2022-08-19T10:22:26.313Z,45.99
2022-08-19T10:24:31.328Z,45.58
2022-08-19T10:26:38.432Z,45.44
2022-08-19T10:28:43.658Z,45.71
2022-08-19T10:30:52.244Z,45.62
2022-08-19T10:32:57.320Z,45.26
2022-08-19T10:35:02.254Z,45.81
2022-08-19T10:37:10.924Z,46.04
2022-08-19T10:39:19.814Z,46.20
2022-08-19T10:41:31.392Z,46.22
2022-08-19T10:43:43.217Z,46.16
2022-08-19T10:45:54.528Z,46.36
2022-08-19T10:48:00.117Z,45.61
2022-08-19T10:50:06.482Z,45.68
2022-08-19T10:52:11.413Z,45.64
2022-08-19T10:54:32.146Z,46.21
2022-08-19T10:56:38.767Z,46.06
2022-08-19T10:58:43.804Z,47.06
2022-08-19T11:00:54.919Z,47.53
2022-08-19T11:02:59.723Z,46.52
2022-08-19T11:05:05.788Z,46.50
2022-08-19T11:07:20.634Z,48.06
2022-08-19T11:09:33.657Z,50.22
2022-08-19T11:11:39.940Z,50.95
2022-08-19T11:13:45.357Z,50.74
2022-08-19T11:15:56.789Z,50.86
2022-08-19T11:18:01.619Z,51.36
2022-08-19T11:20:07.455Z,51.33
2022-08-19T11:22:12.321Z,51.99
2022-08-19T11:24:26.317Z,52.12
2022-08-19T11:26:31.745Z,52.87
2022-08-19T11:28:37.139Z,52.49
2022-08-19T11:30:42.205Z,52.55
2022-08-19T11:32:49.356Z,52.47
2022-08-19T11:34:54.838Z,52.13
2022-08-19T11:36:59.701Z,52.01
2022-08-19T11:39:06.791Z,51.48
2022-08-19T11:41:11.864Z,50.30
2022-08-19T11:43:16.735Z,49.60
2022-08-19T11:45:21.823Z,48.54
2022-08-19T11:47:26.910Z,47.88
2022-08-19T11:49:31.848Z,47.11
2022-08-19T11:51:37.259Z,46.82
2022-08-19T11:53:42.591Z,46.64
2022-08-19T11:55:48.110Z,46.33
2022-08-19T11:57:53.151Z,46.34
2022-08-19T11:59:58.435Z,45.76
2022-08-19T12:02:03.480Z,45.68
2022-08-19T12:04:08.549Z,44.93
2022-08-19T12:06:15.792Z,44.82
2022-08-19T12:08:21.223Z,44.37
2022-08-19T12:10:26.648Z,44.59
2022-08-19T12:12:31.879Z,44.28
2022-08-19T12:14:37.075Z,44.52
2022-08-19T12:16:48.561Z,44.73
2022-08-19T12:18:57.731Z,44.66
2022-08-19T12:21:03.204Z,44.73
2022-08-19T12:23:09.327Z,44.73
2022-08-19T12:25:15.250Z,44.84
2022-08-19T12:27:31.970Z,44.95
2022-08-19T12:29:45.051Z,44.88
2022-08-19T12:31:54.463Z,44.80
2022-08-19T12:33:59.572Z,44.88
2022-08-19T12:36:08.252Z,44.88
2022-08-19T12:38:13.625Z,44.93
2022-08-19T12:40:19.246Z,44.82
2022-08-19T12:42:24.168Z,45.03
2022-08-19T12:44:32.931Z,45.23
2022-08-19T12:46:38.921Z,45.30
2022-08-19T12:48:45.058Z,45.11
2022-08-19T12:50:50.169Z,45.65
2022-08-19T12:52:55.183Z,46.87
2022-08-19T12:55:00.204Z,47.26
2022-08-19T12:57:08.621Z,47.74
2022-08-19T12:59:14.501Z,47.87
2022-08-19T13:01:23.258Z,47.53
2022-08-19T13:03:28.389Z,47.70
2022-08-19T13:05:34.824Z,47.55
2022-08-19T13:07:41.152Z,47.36
2022-08-19T13:09:45.920Z,47.28
2022-08-19T13:11:50.753Z,47.21
2022-08-19T13:13:55.920Z,47.06
2022-08-19T13:16:02.792Z,46.96
2022-08-19T13:18:09.591Z,46.96
2022-08-19T13:20:14.737Z,47.68
2022-08-19T13:22:19.727Z,47.89
2022-08-19T13:24:24.703Z,47.98
2022-08-19T13:26:36.560Z,47.75
2022-08-19T13:28:42.881Z,47.75
2022-08-19T13:30:50.818Z,48.03
2022-08-19T13:32:58.305Z,47.92
2022-08-19T13:35:03.557Z,48.09
2022-08-19T13:37:08.459Z,48.93
2022-08-19T13:39:13.334Z,49.09
2022-08-19T13:41:18.300Z,49.49
2022-08-19T13:43:26.657Z,50.38
2022-08-19T13:45:33.668Z,51.31
2022-08-19T13:47:42.003Z,51.78
2022-08-19T13:49:46.919Z,51.97
2022-08-19T13:51:51.725Z,52.54
2022-08-19T13:53:56.623Z,52.95
2022-08-19T13:56:01.797Z,53.08
2022-08-19T13:58:06.688Z,53.21
2022-08-19T14:00:17.377Z,52.66
2022-08-19T14:02:22.330Z,52.71
2022-08-19T14:04:27.141Z,52.85
2022-08-19T14:06:31.972Z,53.10
2022-08-19T14:08:43.068Z,52.97
2022-08-19T14:10:50.823Z,53.24
2022-08-19T14:12:57.409Z,52.75
2022-08-19T14:15:02.592Z,52.60
2022-08-19T14:17:10.052Z,52.75
2022-08-19T14:19:17.933Z,52.08
2022-08-19T14:21:25.137Z,52.24
2022-08-19T14:23:30.313Z,52.01
2022-08-19T14:25:35.539Z,51.86
2022-08-19T14:27:42.029Z,51.78
2022-08-19T14:29:47.241Z,51.36
2022-08-19T14:31:52.329Z,51.26
2022-08-19T14:33:57.436Z,51.38
2022-08-19T14:36:02.306Z,50.75
2022-08-19T14:38:15.518Z,50.21
2022-08-19T14:40:22.567Z,49.26
2022-08-19T14:42:27.616Z,49.34
2022-08-19T14:44:32.675Z,49.03
2022-08-19T14:46:37.462Z,48.23
2022-08-19T14:48:42.523Z,47.88
2022-08-19T14:50:47.528Z,47.47
2022-08-19T14:52:58.566Z,47.77
2022-08-19T14:55:07.684Z,47.16
2022-08-19T14:57:16.075Z,46.79
2022-08-19T14:59:20.944Z,46.23
2022-08-19T15:01:25.965Z,45.65
2022-08-19T15:03:31.846Z,45.54
2022-08-19T15:05:37.061Z,45.44
2022-08-19T15:07:45.445Z,45.25
2022-08-19T15:09:51.616Z,45.28
2022-08-19T15:11:56.908Z,45.06
2022-08-19T15:14:02.181Z,45.33
2022-08-19T15:16:07.793Z,45.41
2022-08-19T15:18:22.899Z,45.12
2022-08-19T15:20:31.570Z,45.25
2022-08-19T15:22:36.581Z,45.39
2022-08-19T15:24:47.906Z,45.47
2022-08-19T15:26:53.723Z,45.72
2022-08-19T15:28:58.912Z,45.76
2022-08-19T15:31:04.481Z,46.00
2022-08-19T15:33:11.261Z,46.06
2022-08-19T15:35:16.397Z,46.13
2022-08-19T15:37:21.530Z,46.21
2022-08-19T15:39:27.601Z,46.50
2022-08-19T15:41:33.197Z,46.61
2022-08-19T15:43:43.575Z,46.87
2022-08-19T15:45:51.305Z,46.94
2022-08-19T15:47:56.325Z,46.76
2022-08-19T15:50:01.494Z,47.05
2022-08-19T15:52:06.927Z,47.03
2022-08-19T15:54:15.352Z,47.01
2022-08-19T15:56:22.640Z,46.66
2022-08-19T15:58:30.026Z,47.05
2022-08-19T16:00:35.045Z,46.46
2022-08-19T16:02:39.956Z,46.22
2022-08-19T16:04:44.761Z,46.07
2022-08-19T16:06:52.151Z,45.78
2022-08-19T16:08:59.284Z,45.80
2022-08-19T16:11:04.188Z,45.75
2022-08-19T16:13:09.007Z,46.06
2022-08-19T16:15:14.370Z,46.07
2022-08-19T16:17:19.104Z,46.29
2022-08-19T16:19:24.641Z,46.09
2022-08-19T16:21:30.556Z,46.00
2022-08-19T16:23:35.895Z,46.00
2022-08-19T16:25:40.743Z,45.87
2022-08-19T16:27:49.043Z,45.64
2022-08-19T16:30:11.652Z,45.44
2022-08-19T16:32:16.560Z,45.78
2022-08-19T16:34:21.875Z,45.54
2022-08-19T16:36:26.835Z,45.49
2022-08-19T16:38:33.067Z,45.89
2022-08-19T16:40:37.938Z,45.88
2022-08-19T16:42:43.023Z,46.11
2022-08-19T16:44:48.074Z,46.02
2022-08-19T16:46:58.599Z,46.07
2022-08-19T16:49:04.324Z,46.24
2022-08-19T16:51:09.192Z,46.29
2022-08-19T16:53:18.485Z,46.09
2022-08-19T16:55:24.848Z,46.31
2022-08-19T16:57:29.827Z,46.54
2022-08-19T16:59:35.032Z,46.67
2022-08-19T17:01:40.093Z,46.81
2022-08-19T17:03:45.692Z,46.81
2022-08-19T17:05:52.530Z,46.85
2022-08-19T17:07:57.533Z,46.83
2022-08-19T17:10:04.151Z,47.01
2022-08-19T17:12:12.116Z,47.38
2022-08-19T17:14:17.071Z,47.65
2022-08-19T17:16:25.078Z,48.00
2022-08-19T17:18:31.797Z,48.69
2022-08-19T17:20:37.579Z,48.64
2022-08-19T17:22:42.516Z,48.82
2022-08-19T17:24:47.408Z,49.16
2022-08-19T17:26:52.108Z,49.39
2022-08-19T17:28:59.054Z,49.42
2022-08-19T17:31:04.133Z,49.69
2022-08-19T17:33:09.399Z,49.83
2022-08-19T17:35:14.205Z,49.65
2022-08-19T17:37:18.943Z,49.56
2022-08-19T17:39:24.263Z,49.40
2022-08-19T17:41:29.832Z,48.96
2022-08-19T17:43:40.079Z,48.65
2022-08-19T17:45:48.361Z,48.55
2022-08-19T17:47:53.427Z,48.28
2022-08-19T17:49:58.443Z,48.32
2022-08-19T17:52:09.448Z,48.34
2022-08-19T17:54:16.690Z,48.41
2022-08-19T17:56:22.253Z,48.63
2022-08-19T17:58:27.195Z,48.72
2022-08-19T18:00:32.812Z,48.87
2022-08-19T18:02:47.634Z,48.87
2022-08-19T18:04:55.352Z,49.07
2022-08-19T18:07:00.317Z,49.45
2022-08-19T18:09:06.265Z,49.78
2022-08-19T18:11:11.168Z,50.29
2022-08-19T18:13:17.739Z,50.40
2022-08-19T18:15:23.963Z,50.83
2022-08-19T18:17:28.932Z,51.14
2022-08-19T18:19:41.216Z,51.31
2022-08-19T18:21:47.559Z,51.60
2022-08-19T18:23:55.217Z,51.85
2022-08-19T18:26:07.558Z,51.94
2022-08-19T18:28:12.381Z,52.53
2022-08-19T18:30:17.923Z,52.71
2022-08-19T18:32:23.626Z,52.89
2022-08-19T18:34:28.964Z,53.14
2022-08-19T18:36:52.902Z,53.51
2022-08-19T18:38:58.453Z,53.63
2022-08-19T18:41:04.588Z,53.66
2022-08-19T18:43:10.044Z,53.76
2022-08-19T18:45:14.810Z,53.74
2022-08-19T18:47:19.686Z,53.82
2022-08-19T18:49:28.162Z,53.98
2022-08-19T18:51:33.399Z,53.99
2022-08-19T18:53:40.691Z,54.15
2022-08-19T18:55:45.708Z,54.05
2022-08-19T18:57:50.611Z,54.37
2022-08-19T18:59:57.362Z,54.40
2022-08-19T19:02:02.259Z,54.48
2022-08-19T19:04:09.218Z,54.42
2022-08-19T19:06:15.031Z,54.43
2022-08-19T19:08:19.989Z,55.51
2022-08-19T19:10:25.889Z,55.59
2022-08-19T19:12:30.938Z,55.68
2022-08-19T19:14:49.250Z,56.12
2022-08-19T19:16:54.815Z,56.59
2022-08-19T19:19:00.071Z,57.02
2022-08-19T19:21:05.274Z,57.45
2022-08-19T19:23:10.782Z,57.92
2022-08-19T19:25:15.830Z,58.33
2022-08-19T19:27:21.362Z,58.55
2022-08-19T19:29:27.066Z,58.55
2022-08-19T19:31:32.731Z,59.21
2022-08-19T19:33:37.785Z,59.88
2022-08-19T19:35:44.880Z,59.43
2022-08-19T19:37:52.210Z,58.84
2022-08-19T19:39:57.444Z,59.09
2022-08-19T19:42:05.693Z,59.12
2022-08-19T19:44:30.252Z,59.60
2022-08-19T19:46:36.697Z,60.15
2022-08-19T19:48:41.629Z,60.43
2022-08-19T19:50:54.167Z,61.04
2022-08-19T19:53:01.219Z,61.33
2022-08-19T19:55:08.580Z,62.37
2022-08-19T19:57:13.424Z,62.93
2022-08-19T19:59:18.622Z,63.54
2022-08-19T20:01:24.174Z,64.51
2022-08-19T20:03:32.188Z,66.16
2022-08-19T20:05:36.925Z,67.81
2022-08-19T20:07:44.444Z,70.20
2022-08-19T20:09:59.728Z,71.47
2022-08-19T20:12:05.600Z,71.54
2022-08-19T20:14:14.034Z,72.53
2022-08-19T20:16:18.807Z,72.17
2022-08-19T20:18:23.605Z,73.19
2022-08-19T20:20:28.477Z,73.72
2022-08-19T20:22:35.906Z,73.30
2022-08-19T20:24:40.650Z,74.02
2022-08-19T20:26:46.511Z,74.43
2022-08-19T20:29:03.071Z,74.54
2022-08-19T20:31:19.296Z,74.34
2022-08-19T20:33:24.232Z,74.12
2022-08-19T20:35:29.011Z,74.72
2022-08-19T20:37:33.884Z,75.25
2022-08-19T20:39:38.877Z,75.49
2022-08-19T20:41:43.747Z,75.95
2022-08-19T20:43:49.115Z,75.99
2022-08-19T20:45:54.170Z,76.04
2022-08-19T20:47:58.937Z,76.16
2022-08-19T20:50:04.249Z,76.71
2022-08-19T20:52:09.013Z,77.22
2022-08-19T20:54:13.782Z,76.45
2022-08-19T20:56:18.700Z,76.58
2022-08-19T20:58:25.192Z,76.97
2022-08-19T21:00:30.356Z,77.10
2022-08-19T21:02:35.045Z,76.98
2022-08-19T21:04:39.747Z,76.82
2022-08-19T21:06:45.470Z,76.82
2022-08-19T21:08:51.087Z,76.87
2022-08-19T21:10:58.979Z,76.44
2022-08-19T21:13:03.927Z,76.18
2022-08-19T21:15:10.562Z,75.98
2022-08-19T21:17:15.626Z,74.45
2022-08-19T21:19:23.982Z,75.08
2022-08-19T21:21:29.173Z,74.65
2022-08-19T21:23:33.981Z,74.68
2022-08-19T21:25:39.072Z,74.64
2022-08-19T21:27:43.819Z,74.43
2022-08-19T21:29:48.537Z,73.95
2022-08-19T21:31:54.108Z,73.97
2022-08-19T21:33:58.937Z,74.24
2022-08-19T21:36:04.892Z,73.93
2022-08-19T21:38:09.604Z,74.29
2022-08-19T21:40:14.920Z,74.64
2022-08-19T21:42:19.940Z,75.24
2022-08-19T21:44:25.001Z,75.53
2022-08-19T21:46:29.677Z,75.01
2022-08-19T21:48:34.521Z,75.30
2022-08-19T21:50:39.372Z,74.37
2022-08-19T21:52:44.468Z,74.19
2022-08-19T21:54:49.513Z,74.54
2022-08-19T21:56:54.342Z,74.84
2022-08-19T21:58:59.130Z,75.06
2022-08-19T22:01:05.209Z,74.93
2022-08-19T22:03:10.237Z,74.42
2022-08-19T22:05:15.471Z,74.45
2022-08-19T22:07:22.120Z,74.47
2022-08-19T22:09:26.920Z,74.66
2022-08-19T22:11:32.107Z,74.68
2022-08-19T22:13:39.775Z,74.62
2022-08-19T22:15:45.423Z,74.78
2022-08-19T22:17:50.264Z,74.82
2022-08-19T22:19:56.081Z,74.83
2022-08-19T22:22:00.875Z,74.93
2022-08-19T22:24:06.620Z,75.24
2022-08-19T22:26:12.181Z,75.17
2022-08-19T22:28:27.615Z,75.25
2022-08-19T22:30:34.482Z,74.89
2022-08-19T22:32:44.124Z,75.05
2022-08-19T22:34:49.178Z,74.91
2022-08-19T22:36:53.937Z,74.83
2022-08-19T22:38:58.799Z,74.86
2022-08-19T22:41:03.829Z,74.75
2022-08-19T22:43:13.302Z,75.13
2022-08-19T22:45:19.055Z,75.04
2022-08-19T22:47:23.895Z,75.64
2022-08-19T22:49:31.848Z,75.86
2022-08-19T22:51:36.795Z,75.82
2022-08-19T22:53:44.465Z,75.69
2022-08-19T22:55:49.332Z,76.35
2022-08-19T22:57:54.674Z,76.36
2022-08-19T23:00:01.150Z,76.51
2022-08-19T23:02:06.747Z,76.80
2022-08-19T23:04:11.995Z,76.99
2022-08-19T23:06:18.653Z,76.95
2022-08-19T23:08:23.571Z,77.04
2022-08-19T23:10:28.863Z,77.03
2022-08-19T23:12:36.238Z,77.36
2022-08-19T23:14:41.653Z,77.49
2022-08-19T23:16:50.815Z,77.67
2022-08-19T23:18:56.342Z,78.04
2022-08-19T23:21:01.418Z,78.31
2022-08-19T23:23:10.220Z,78.73
2022-08-19T23:25:19.367Z,78.45
2022-08-19T23:27:24.441Z,78.77
2022-08-19T23:29:32.626Z,78.82
2022-08-19T23:31:37.314Z,79.17
2022-08-19T23:33:51.479Z,78.68
2022-08-19T23:35:59.164Z,78.72
2022-08-19T23:38:03.872Z,79.05
2022-08-19T23:40:11.174Z,79.31
2022-08-19T23:42:15.911Z,78.98
2022-08-19T23:44:20.591Z,79.22
2022-08-19T23:46:27.598Z,78.81
2022-08-19T23:48:34.807Z,79.04
2022-08-19T23:50:41.410Z,79.13
2022-08-19T23:52:48.429Z,79.07
2022-08-19T23:54:54.133Z,78.87
2022-08-19T23:56:58.829Z,78.70
2022-08-19T23:59:03.802Z,78.69
